Terminal Aerodrome Forecast
Issued by NWS

Home | Current Version | Previous Version | Graphics & Text | Print | Product List | Glossary On
Versions: 1 2 3 4 5 6 7 8 9 10 11 12 13 14 15 16 17 18
626
FTUS43 KBIS 171720
TAFDIK
TAF
KDIK 171720Z 1718/1818 19009KT P6SM FEW045 SCT250
     FM180100 16007KT P6SM SCT200
     FM180900 19004KT P6SM SCT200=

USA.gov is the U.S. government's official web portal to all federal, state and local government web resources and services.